Time;durP1;ratioP1;P1;durP2;ratioP2;P2;SDS_P1;SDS_P2;PMS_P1;PMS_P2;Temp;Humidity;BMP_temperature;BMP_pressure;BME280_temperature;BME280_humidity;BME280_pressure;Samples;Min_cycle;Max_cycle;Signal;HPM_P1;HPM_P2
2021/06/29 00:01:49;;;;;;;3.97;2.20;;;19.10;96.30;;;;;;6280421;22;20035;-78
2021/06/29 00:04:17;;;;;;;4.65;2.45;;;19.10;96.30;;;;;;6282962;22;20085;-78
2021/06/29 00:06:45;;;;;;;4.70;1.88;;;19.10;96.40;;;;;;6256641;22;20046;-78
2021/06/29 00:09:14;;;;;;;5.20;2.70;;;19.00;96.30;;;;;;6282351;22;20081;-79
2021/06/29 00:11:42;;;;;;;12.98;4.78;;;19.00;96.20;;;;;;6282696;22;20016;-78
2021/06/29 00:14:09;;;;;;;3.92;1.92;;;19.00;96.30;;;;;;6254863;22;20046;-78
2021/06/29 00:16:36;;;;;;;21.00;7.72;;;19.10;96.30;;;;;;6286533;22;20015;-78
2021/06/29 00:19:04;;;;;;;6.80;2.97;;;19.10;96.10;;;;;;6279466;22;20086;-78
2021/06/29 00:21:32;;;;;;;5.05;2.45;;;19.00;96.00;;;;;;6254451;22;20016;-77
2021/06/29 00:24:03;;;;;;;3.72;1.95;;;19.10;96.10;;;;;;6254299;22;20020;-77
2021/06/29 00:26:31;;;;;;;18.88;6.38;;;19.10;96.00;;;;;;6256558;22;20026;-77
2021/06/29 00:28:59;;;;;;;14.70;4.50;;;19.10;96.00;;;;;;6253912;22;20031;-76
2021/06/29 00:31:27;;;;;;;4.13;1.98;;;19.10;96.00;;;;;;6282583;22;20011;-76
2021/06/29 00:33:55;;;;;;;4.70;1.75;;;19.10;95.90;;;;;;6279627;22;20020;-76
2021/06/29 00:36:22;;;;;;;24.45;6.28;;;19.00;96.00;;;;;;6253059;22;20230;-77
2021/06/29 00:38:49;;;;;;;3.25;1.80;;;19.00;96.00;;;;;;6253621;22;20027;-77
2021/06/29 00:41:18;;;;;;;3.58;2.20;;;18.90;95.90;;;;;;6279995;22;20027;-77
2021/06/29 00:43:47;;;;;;;4.78;1.95;;;19.00;95.90;;;;;;6281194;22;20015;-77
2021/06/29 00:46:14;;;;;;;5.45;2.22;;;19.00;96.00;;;;;;6281985;22;20024;-76
2021/06/29 00:48:42;;;;;;;4.30;2.10;;;18.90;96.00;;;;;;6253454;22;20326;-77
2021/06/29 00:51:13;;;;;;;3.35;1.85;;;18.90;95.90;;;;;;6277774;22;20311;-77
2021/06/29 00:53:40;;;;;;;4.82;2.13;;;18.90;95.90;;;;;;6277726;22;20028;-77
2021/06/29 00:56:13;;;;;;;7.78;2.45;;;18.90;95.80;;;;;;6279616;22;20028;-77
2021/06/29 00:58:42;;;;;;;4.97;2.08;;;18.80;95.80;;;;;;6253210;22;20024;-78
2021/06/29 01:01:10;;;;;;;4.00;2.58;;;18.80;95.80;;;;;;6276667;22;20024;-78
2021/06/29 01:03:37;;;;;;;5.75;2.00;;;18.70;95.80;;;;;;6281113;22;20303;-78
2021/06/29 01:06:06;;;;;;;4.50;2.55;;;18.70;96.00;;;;;;6282314;22;20023;-78
2021/06/29 01:08:33;;;;;;;4.82;2.47;;;18.80;96.00;;;;;;6283375;22;20074;-77
2021/06/29 01:11:02;;;;;;;9.45;3.85;;;18.80;96.10;;;;;;6254663;22;20020;-77
2021/06/29 01:13:32;;;;;;;5.65;2.67;;;18.90;96.00;;;;;;6281160;22;20011;-78
2021/06/29 01:16:02;;;;;;;3.13;1.90;;;19.00;95.80;;;;;;6254283;22;20043;-78
2021/06/29 01:18:30;;;;;;;4.57;2.35;;;18.90;95.60;;;;;;6257274;22;20323;-78
2021/06/29 01:20:58;;;;;;;4.90;2.33;;;18.90;95.60;;;;;;6255604;22;20027;-78
2021/06/29 01:23:28;;;;;;;4.30;2.42;;;18.90;95.70;;;;;;6256762;22;20020;-78
2021/06/29 01:26:10;;;;;;;4.38;2.45;;;18.90;95.60;;;;;;6283549;22;20235;-78
2021/06/29 01:28:45;;;;;;;7.78;2.78;;;18.90;95.60;;;;;;6283083;22;20050;-77
2021/06/29 01:31:15;;;;;;;5.68;2.60;;;18.80;95.60;;;;;;6285365;22;20031;-78
2021/06/29 01:33:42;;;;;;;3.47;2.00;;;18.90;95.70;;;;;;6285624;22;20084;-78
2021/06/29 01:36:11;;;;;;;5.93;2.22;;;18.90;95.40;;;;;;6281981;22;20338;-77
2021/06/29 01:38:38;;;;;;;4.78;2.05;;;18.90;95.40;;;;;;6280051;22;20026;-78
2021/06/29 01:41:06;;;;;;;4.30;2.15;;;18.90;95.30;;;;;;6279212;22;20034;-78
2021/06/29 01:43:38;;;;;;;8.57;2.30;;;18.90;95.30;;;;;;6280946;22;20219;-78
2021/06/29 01:46:08;;;;;;;6.60;2.53;;;18.90;95.40;;;;;;6283371;22;20087;-78
2021/06/29 01:48:35;;;;;;;3.47;1.92;;;18.70;95.20;;;;;;6282698;22;20016;-78
2021/06/29 01:51:03;;;;;;;5.07;2.33;;;18.60;95.20;;;;;;6284862;22;20030;-78
2021/06/29 01:53:36;;;;;;;4.88;2.00;;;18.70;95.50;;;;;;6282745;22;20067;-77
2021/06/29 01:56:06;;;;;;;4.03;2.13;;;18.70;95.60;;;;;;6255643;22;20248;-78
2021/06/29 01:58:34;;;;;;;4.22;2.50;;;18.70;95.40;;;;;;6253426;22;20066;-79
2021/06/29 02:01:01;;;;;;;4.80;1.70;;;18.60;95.30;;;;;;6248789;22;20035;-78
2021/06/29 02:03:37;;;;;;;3.33;1.90;;;18.50;94.80;;;;;;6285602;22;20031;-78
2021/06/29 02:06:05;;;;;;;5.55;2.03;;;18.50;95.10;;;;;;6222075;23;20020;-78
2021/06/29 02:08:33;;;;;;;2.40;1.67;;;18.50;95.10;;;;;;6220024;23;20382;-79
2021/06/29 02:11:03;;;;;;;4.80;2.20;;;18.50;95.10;;;;;;6221315;23;20016;-79
2021/06/29 02:13:30;;;;;;;4.40;2.40;;;18.60;95.30;;;;;;6223959;23;20072;-78
2021/06/29 02:15:59;;;;;;;4.28;1.90;;;18.60;95.10;;;;;;6223470;23;20032;-79
2021/06/29 02:18:28;;;;;;;3.72;2.15;;;18.50;95.00;;;;;;6221846;23;20041;-78
2021/06/29 02:20:56;;;;;;;3.45;2.13;;;18.40;94.90;;;;;;6219827;23;20044;-78
2021/06/29 02:23:23;;;;;;;4.18;2.53;;;18.30;95.00;;;;;;6222008;23;20013;-77
2021/06/29 02:25:51;;;;;;;3.72;1.98;;;18.30;95.10;;;;;;6221621;23;20063;-78
2021/06/29 02:28:20;;;;;;;7.32;3.20;;;18.30;95.00;;;;;;6220019;23;20131;-78
2021/06/29 02:30:47;;;;;;;4.77;2.60;;;18.30;95.00;;;;;;6220827;23;20028;-77
2021/06/29 02:33:15;;;;;;;4.78;2.40;;;18.30;94.80;;;;;;6222504;23;20011;-77
2021/06/29 02:35:42;;;;;;;4.68;2.63;;;18.20;94.90;;;;;;6221818;23;20031;-77
2021/06/29 02:38:09;;;;;;;4.32;2.42;;;18.20;94.90;;;;;;6219929;23;20028;-77
2021/06/29 02:40:37;;;;;;;6.85;2.72;;;18.20;95.00;;;;;;6220992;23;20350;-77
2021/06/29 02:43:04;;;;;;;4.97;2.60;;;18.20;95.00;;;;;;6220267;23;20035;-77
2021/06/29 02:45:33;;;;;;;6.28;2.65;;;18.10;94.90;;;;;;6219690;23;20041;-77
2021/06/29 02:48:01;;;;;;;4.57;2.47;;;18.10;94.90;;;;;;6220824;23;20032;-77
2021/06/29 02:50:30;;;;;;;6.85;3.00;;;18.10;94.90;;;;;;6220164;23;20020;-76
2021/06/29 02:52:57;;;;;;;7.57;3.42;;;18.10;94.90;;;;;;6217901;23;20547;-76
2021/06/29 02:55:25;;;;;;;4.78;3.10;;;18.10;94.90;;;;;;6218699;23;20016;-77
2021/06/29 02:57:52;;;;;;;5.30;3.05;;;18.00;94.70;;;;;;6217440;23;20099;-77
2021/06/29 03:00:21;;;;;;;5.35;2.92;;;18.00;94.70;;;;;;6214986;23;20425;-77
2021/06/29 03:02:50;;;;;;;6.03;2.97;;;17.90;94.50;;;;;;6218438;23;20075;-77
2021/06/29 03:05:18;;;;;;;5.83;3.13;;;17.90;94.50;;;;;;6260388;22;20073;-79
2021/06/29 03:08:12;;;;;;;5.93;3.17;;;17.90;94.50;;;;;;6211482;22;20074;-79
2021/06/29 03:10:40;;;;;;;4.63;2.67;;;17.90;94.50;;;;;;6282447;22;20219;-77
2021/06/29 03:13:07;;;;;;;6.53;3.45;;;17.90;94.30;;;;;;6258247;22;20024;-78
2021/06/29 03:15:35;;;;;;;5.40;3.20;;;17.90;94.40;;;;;;6255018;22;20266;-78
2021/06/29 03:18:05;;;;;;;6.07;3.58;;;17.90;94.40;;;;;;6283465;22;20026;-76
2021/06/29 03:20:34;;;;;;;4.93;3.03;;;17.90;94.40;;;;;;6285767;22;20050;-78
2021/06/29 03:23:01;;;;;;;6.13;3.50;;;17.90;94.50;;;;;;6285770;22;20080;-78
2021/06/29 03:25:31;;;;;;;5.78;3.47;;;17.90;94.20;;;;;;6285091;22;20016;-78
2021/06/29 03:28:00;;;;;;;7.63;3.83;;;17.90;94.10;;;;;;6258516;22;20027;-78
2021/06/29 03:30:28;;;;;;;;;;;17.90;94.20;;;;;;6257237;22;20034;-79
2021/06/29 03:32:56;;;;;;;11.23;3.28;;;18.00;94.40;;;;;;6257761;22;19919;-77
2021/06/29 03:35:25;;;;;;;5.22;3.30;;;18.00;94.30;;;;;;6255161;22;20031;-77
2021/06/29 03:37:52;;;;;;;6.97;3.78;;;18.00;94.10;;;;;;6282121;22;20047;-77
2021/06/29 03:40:20;;;;;;;7.55;4.32;;;18.20;93.90;;;;;;6280691;22;20023;-77
2021/06/29 03:42:47;;;;;;;7.07;4.40;;;18.20;93.50;;;;;;6257117;22;20023;-77
2021/06/29 03:45:14;;;;;;;6.65;4.50;;;18.20;93.20;;;;;;6256617;22;20060;-77
2021/06/29 03:47:43;;;;;;;11.60;5.20;;;18.30;93.20;;;;;;6281780;22;20027;-77
2021/06/29 03:50:11;;;;;;;10.93;5.00;;;18.20;93.20;;;;;;6253802;22;20027;-77
2021/06/29 03:52:40;;;;;;;7.03;4.43;;;18.30;93.00;;;;;;6280460;22;20031;-77
2021/06/29 03:55:09;;;;;;;7.13;4.38;;;18.30;93.40;;;;;;6283376;22;20058;-77
2021/06/29 03:57:36;;;;;;;8.20;4.15;;;18.40;93.30;;;;;;6257309;22;20019;-78
2021/06/29 04:00:08;;;;;;;9.38;4.15;;;18.40;93.20;;;;;;6281441;22;20027;-77
2021/06/29 04:02:35;;;;;;;7.15;3.75;;;18.50;93.20;;;;;;6253922;22;20024;-78
2021/06/29 04:05:04;;;;;;;5.75;3.70;;;18.60;93.40;;;;;;6256461;22;20031;-77
2021/06/29 04:07:31;;;;;;;6.07;3.53;;;18.60;93.00;;;;;;6254660;22;20034;-78
2021/06/29 04:10:00;;;;;;;6.57;3.58;;;18.60;92.90;;;;;;6254962;22;20019;-77
2021/06/29 04:12:34;;;;;;;6.93;3.78;;;18.60;93.00;;;;;;6253164;22;20054;-77
2021/06/29 04:15:01;;;;;;;4.55;3.30;;;18.70;92.60;;;;;;6253779;22;20027;-77
2021/06/29 04:17:29;;;;;;;5.72;2.58;;;18.70;92.70;;;;;;6282162;22;20022;-77
2021/06/29 04:19:57;;;;;;;5.88;3.13;;;18.80;92.80;;;;;;6282188;22;20023;-77
2021/06/29 04:22:24;;;;;;;6.32;3.00;;;18.90;92.70;;;;;;6279081;22;20285;-77
2021/06/29 04:24:52;;;;;;;3.78;2.75;;;19.00;92.00;;;;;;6254756;22;20016;-77
2021/06/29 04:27:32;;;;;;;5.65;2.70;;;19.00;92.10;;;;;;2504531;22;10022591;-78
2021/06/29 04:29:59;;;;;;;5.20;2.63;;;19.10;92.30;;;;;;4527397;22;10001114;-77
2021/06/29 04:32:26;;;;;;;5.60;2.58;;;19.20;92.30;;;;;;6274353;22;20027;-77
2021/06/29 04:34:54;;;;;;;3.60;2.40;;;19.30;91.80;;;;;;6253193;22;20028;-77
2021/06/29 04:37:21;;;;;;;6.30;2.80;;;19.30;91.70;;;;;;6282906;22;20079;-78
2021/06/29 04:39:48;;;;;;;5.75;2.35;;;19.40;91.70;;;;;;6279195;22;20035;-78
2021/06/29 04:42:16;;;;;;;4.70;2.47;;;19.50;91.30;;;;;;6281406;22;20246;-78
2021/06/29 04:44:45;;;;;;;6.75;2.75;;;19.40;90.60;;;;;;6252432;22;20115;-78
2021/06/29 04:47:12;;;;;;;10.50;3.05;;;19.40;90.60;;;;;;6252673;22;20028;-78
2021/06/29 04:49:40;;;;;;;4.65;2.88;;;19.60;90.30;;;;;;6277961;22;20206;-78
2021/06/29 04:52:08;;;;;;;5.72;2.67;;;19.70;90.90;;;;;;6253658;22;20027;-78
2021/06/29 04:54:35;;;;;;;6.63;3.65;;;19.90;90.20;;;;;;6253530;22;20024;-77
2021/06/29 04:57:03;;;;;;;6.38;2.95;;;20.00;90.20;;;;;;6277712;22;20266;-77
2021/06/29 04:59:30;;;;;;;5.65;3.15;;;20.10;89.70;;;;;;6252375;22;20026;-77
2021/06/29 05:01:58;;;;;;;6.90;3.97;;;20.20;89.50;;;;;;6277367;22;20023;-78
2021/06/29 05:04:26;;;;;;;7.57;3.70;;;20.20;89.20;;;;;;6282248;22;20020;-77
2021/06/29 05:06:53;;;;;;;6.63;3.40;;;20.20;89.20;;;;;;6279047;22;20322;-77
2021/06/29 05:09:20;;;;;;;7.93;3.80;;;20.20;89.30;;;;;;6280855;22;20307;-78
2021/06/29 05:11:48;;;;;;;6.38;3.70;;;20.30;88.80;;;;;;6275007;22;20024;-78
2021/06/29 05:14:15;;;;;;;6.68;3.50;;;20.30;88.70;;;;;;6248115;22;20027;-76
2021/06/29 05:16:43;;;;;;;6.10;3.72;;;20.30;88.30;;;;;;6249735;22;20070;-78
2021/06/29 05:19:11;;;;;;;5.60;3.50;;;20.30;88.90;;;;;;6251798;22;20027;-77
2021/06/29 05:21:39;;;;;;;6.15;3.47;;;20.30;88.30;;;;;;6279764;22;20024;-77
2021/06/29 05:24:07;;;;;;;6.43;3.42;;;20.30;88.20;;;;;;6275953;22;20234;-75
2021/06/29 05:26:34;;;;;;;7.63;3.50;;;20.40;88.10;;;;;;6253700;22;20385;-77
2021/06/29 05:29:02;;;;;;;5.90;3.35;;;20.40;88.10;;;;;;6253105;22;20027;-76
2021/06/29 05:31:30;;;;;;;5.55;2.97;;;20.50;88.00;;;;;;6283013;22;20069;-77
2021/06/29 05:33:57;;;;;;;8.02;4.80;;;20.60;87.50;;;;;;6282436;22;20019;-76
2021/06/29 05:36:26;;;;;;;6.85;3.35;;;20.80;87.30;;;;;;6281861;22;20028;-77
2021/06/29 05:38:53;;;;;;;6.15;3.30;;;20.90;86.50;;;;;;6256390;22;20023;-77
2021/06/29 05:41:21;;;;;;;6.43;3.08;;;20.90;86.10;;;;;;6284706;22;20303;-77
2021/06/29 05:43:49;;;;;;;7.68;3.20;;;20.90;85.50;;;;;;6281203;22;20019;-77
2021/06/29 05:46:17;;;;;;;5.68;3.15;;;20.90;85.00;;;;;;6280387;22;20043;-75
2021/06/29 05:48:44;;;;;;;4.13;2.47;;;21.00;85.70;;;;;;6282943;22;20035;-76
2021/06/29 05:51:12;;;;;;;5.40;2.78;;;21.00;85.20;;;;;;6251999;22;20024;-75
2021/06/29 05:53:40;;;;;;;4.72;2.95;;;21.10;85.60;;;;;;6251869;22;20217;-75
2021/06/29 05:56:10;;;;;;;6.88;3.17;;;21.10;85.10;;;;;;6276064;22;20284;-76
2021/06/29 05:58:38;;;;;;;5.82;3.00;;;21.10;85.80;;;;;;6275608;22;20024;-75
2021/06/29 06:01:05;;;;;;;4.70;3.33;;;21.10;87.00;;;;;;6275170;22;20028;-75
2021/06/29 06:03:33;;;;;;;4.75;3.00;;;21.20;85.50;;;;;;6284560;22;20020;-75
2021/06/29 06:06:00;;;;;;;8.20;3.15;;;21.10;84.90;;;;;;6283281;22;20016;-76
2021/06/29 06:08:31;;;;;;;5.18;2.95;;;21.10;85.10;;;;;;6281096;22;20408;-75
2021/06/29 06:11:00;;;;;;;4.32;2.80;;;21.00;85.50;;;;;;6281519;22;20205;-76
2021/06/29 06:13:30;;;;;;;4.65;3.10;;;20.90;85.70;;;;;;6279417;22;20286;-75
2021/06/29 06:15:58;;;;;;;6.15;2.83;;;20.90;85.90;;;;;;6252770;22;20085;-76
2021/06/29 06:18:26;;;;;;;4.10;2.80;;;20.70;84.90;;;;;;6281030;22;20023;-75
2021/06/29 06:20:57;;;;;;;4.82;2.75;;;20.70;86.20;;;;;;6252194;22;20026;-76
2021/06/29 06:23:24;;;;;;;5.65;2.80;;;20.70;86.40;;;;;;6254087;22;20024;-76
2021/06/29 06:25:51;;;;;;;5.07;3.13;;;20.70;86.10;;;;;;6253170;22;20314;-75
2021/06/29 06:28:22;;;;;;;4.18;2.70;;;20.90;85.60;;;;;;6281503;22;20024;-75
2021/06/29 06:30:49;;;;;;;3.97;2.65;;;21.00;84.60;;;;;;6281446;22;20030;-75
2021/06/29 06:33:19;;;;;;;6.63;2.83;;;21.10;84.60;;;;;;6281721;22;20027;-78
2021/06/29 06:35:46;;;;;;;;;;;21.10;85.00;;;;;;6277906;22;20153;-77
2021/06/29 06:38:14;;;;;;;5.60;2.60;;;21.10;84.70;;;;;;6282103;22;19957;-77
2021/06/29 06:40:42;;;;;;;5.50;2.60;;;21.10;84.70;;;;;;6279441;22;20323;-78
2021/06/29 06:43:09;;;;;;;3.55;2.33;;;21.10;85.50;;;;;;6256010;22;20023;-78
2021/06/29 06:45:38;;;;;;;4.50;2.70;;;21.00;85.30;;;;;;6281959;22;20269;-78
2021/06/29 06:48:06;;;;;;;5.50;3.33;;;21.00;84.30;;;;;;6285454;22;20299;-77
2021/06/29 06:50:34;;;;;;;4.63;3.65;;;21.20;83.80;;;;;;6255992;22;20335;-77
2021/06/29 06:53:01;;;;;;;5.53;2.67;;;21.30;83.90;;;;;;6258203;22;20028;-77
2021/06/29 06:55:29;;;;;;;5.60;2.63;;;21.20;82.40;;;;;;6255924;22;20027;-76
2021/06/29 06:57:57;;;;;;;4.05;2.35;;;21.10;83.60;;;;;;6282762;22;20364;-76
2021/06/29 07:00:26;;;;;;;4.88;2.83;;;21.20;82.30;;;;;;6275129;22;20051;-76
2021/06/29 07:02:55;;;;;;;3.90;2.45;;;21.20;83.50;;;;;;6282732;22;20024;-77
2021/06/29 07:05:22;;;;;;;5.22;2.55;;;21.40;82.70;;;;;;6274185;22;20027;-78
2021/06/29 07:07:50;;;;;;;5.43;2.25;;;21.50;81.70;;;;;;6256025;22;20026;-77
2021/06/29 07:10:17;;;;;;;3.75;2.13;;;21.60;79.80;;;;;;6282781;22;20050;-77
2021/06/29 07:12:45;;;;;;;3.63;2.20;;;21.80;78.80;;;;;;6255527;22;20027;-78
2021/06/29 07:15:12;;;;;;;5.60;2.63;;;22.00;78.90;;;;;;6281291;22;20020;-77
2021/06/29 07:17:40;;;;;;;4.38;2.30;;;22.00;80.60;;;;;;6283086;22;20027;-78
2021/06/29 07:20:10;;;;;;;4.95;2.20;;;22.10;80.00;;;;;;6283444;22;20075;-77
2021/06/29 07:22:38;;;;;;;4.63;2.17;;;22.20;78.30;;;;;;6281925;22;20023;-77
2021/06/29 07:25:08;;;;;;;4.28;2.28;;;22.10;78.90;;;;;;6254282;22;20230;-77
2021/06/29 07:27:35;;;;;;;3.28;1.70;;;22.20;78.90;;;;;;6253326;22;20050;-77
2021/06/29 07:30:03;;;;;;;3.20;1.90;;;21.90;76.10;;;;;;6283684;22;20023;-77
2021/06/29 07:32:30;;;;;;;6.18;1.92;;;21.70;76.30;;;;;;6284532;22;20319;-78
2021/06/29 07:34:58;;;;;;;2.85;1.70;;;21.60;76.60;;;;;;6282267;22;20023;-78
2021/06/29 07:37:27;;;;;;;3.88;1.70;;;21.80;78.00;;;;;;6280421;22;20026;-78
2021/06/29 07:39:54;;;;;;;3.60;1.83;;;22.10;77.10;;;;;;6283697;22;20053;-77
2021/06/29 07:42:22;;;;;;;2.88;1.60;;;22.30;76.10;;;;;;6282625;22;20022;-77
2021/06/29 07:44:51;;;;;;;3.47;2.00;;;22.00;74.50;;;;;;6279910;22;20253;-77
2021/06/29 07:47:18;;;;;;;1.83;1.60;;;22.20;75.50;;;;;;6255585;22;20028;-77
2021/06/29 07:49:47;;;;;;;3.30;1.35;;;22.20;73.80;;;;;;6282128;22;20338;-77
2021/06/29 07:52:15;;;;;;;2.83;2.00;;;22.50;73.40;;;;;;6281943;22;20019;-78
2021/06/29 07:54:44;;;;;;;5.20;1.60;;;22.80;72.00;;;;;;6282026;22;20331;-77
2021/06/29 07:57:13;;;;;;;2.42;1.80;;;22.80;71.90;;;;;;6255201;22;20034;-77
2021/06/29 07:59:40;;;;;;;5.10;2.30;;;22.90;72.70;;;;;;6282114;22;20118;-77
2021/06/29 08:02:09;;;;;;;2.95;1.83;;;23.20;71.40;;;;;;6246944;22;20047;-77
2021/06/29 08:04:37;;;;;;;3.10;1.88;;;23.50;70.70;;;;;;6281463;22;20338;-77
2021/06/29 08:07:10;;;;;;;4.10;2.13;;;23.60;70.60;;;;;;6255620;22;20028;-78
2021/06/29 08:09:37;;;;;;;3.05;1.60;;;23.50;69.30;;;;;;6280970;22;20020;-78
2021/06/29 08:12:08;;;;;;;4.32;1.50;;;23.70;69.60;;;;;;6282094;22;20077;-78
2021/06/29 08:14:36;;;;;;;2.88;1.75;;;23.90;70.50;;;;;;6281170;22;20039;-78
2021/06/29 08:17:05;;;;;;;3.70;1.60;;;24.40;68.90;;;;;;6257230;22;20050;-78
2021/06/29 08:19:38;;;;;;;4.13;1.85;;;24.50;68.10;;;;;;6282660;22;20027;-78
2021/06/29 08:22:07;;;;;;;3.83;1.98;;;24.80;66.90;;;;;;6282475;22;20276;-78
2021/06/29 08:24:34;;;;;;;3.67;1.88;;;24.90;67.20;;;;;;6255050;22;20061;-78
2021/06/29 08:27:03;;;;;;;2.35;1.50;;;24.60;68.20;;;;;;6254771;22;20027;-79
2021/06/29 08:29:38;;;;;;;2.15;1.42;;;24.50;68.50;;;;;;6255297;22;20103;-78
2021/06/29 08:32:06;;;;;;;2.72;1.40;;;24.70;67.50;;;;;;6257761;22;20045;-79
2021/06/29 08:34:34;;;;;;;2.67;1.48;;;25.10;66.00;;;;;;6258779;22;20030;-79
2021/06/29 08:37:01;;;;;;;3.75;1.98;;;24.60;66.70;;;;;;6255675;22;20027;-79
2021/06/29 08:39:30;;;;;;;3.70;1.55;;;24.60;66.10;;;;;;6281383;22;20070;-78
2021/06/29 08:41:57;;;;;;;6.65;1.90;;;24.50;68.00;;;;;;6257188;22;20042;-77
2021/06/29 08:44:25;;;;;;;2.20;1.40;;;24.30;67.20;;;;;;6283058;22;20031;-77
2021/06/29 08:46:54;;;;;;;1.92;1.00;;;24.30;66.90;;;;;;6281153;22;20043;-78
2021/06/29 08:49:21;;;;;;;2.35;1.33;;;25.10;67.50;;;;;;6257079;22;20034;-77
2021/06/29 08:51:51;;;;;;;2.63;1.40;;;25.40;64.60;;;;;;6281917;22;20020;-77
2021/06/29 08:54:21;;;;;;;2.20;1.40;;;25.30;64.50;;;;;;6283641;22;20023;-78
2021/06/29 08:56:48;;;;;;;;;;;25.40;64.10;;;;;;6286017;22;20023;-78
2021/06/29 08:59:15;;;;;;;2.97;1.83;;;25.20;63.80;;;;;;6285882;22;19919;-77
2021/06/29 09:01:42;;;;;;;3.45;1.70;;;25.30;65.10;;;;;;6278300;22;20027;-78
2021/06/29 09:04:11;;;;;;;2.85;1.70;;;25.70;63.80;;;;;;6282343;22;20019;-79
2021/06/29 09:06:40;;;;;;;1.80;1.40;;;25.50;63.90;;;;;;6283607;22;20074;-76
2021/06/29 09:09:24;;;;;;;2.58;1.50;;;25.70;64.40;;;;;;6282842;22;20471;-78
2021/06/29 09:11:56;;;;;;;4.28;1.73;;;26.00;64.50;;;;;;6256510;22;20035;-77
2021/06/29 09:14:29;;;;;;;3.38;1.63;;;26.70;61.00;;;;;;6283783;22;20199;-78
2021/06/29 09:17:17;;;;;;;2.67;1.67;;;27.10;61.90;;;;;;6256820;22;20041;-76
2021/06/29 09:19:46;;;;;;;4.55;1.92;;;27.20;61.30;;;;;;6257394;22;20027;-77
2021/06/29 09:22:27;;;;;;;2.10;1.27;;;26.50;61.40;;;;;;6259373;22;20270;-77
2021/06/29 09:24:57;;;;;;;2.65;1.58;;;26.50;61.00;;;;;;6286931;22;20027;-75
2021/06/29 09:27:42;;;;;;;2.22;1.42;;;26.60;61.20;;;;;;6284790;22;20027;-76
2021/06/29 09:30:32;;;;;;;2.28;1.50;;;26.50;61.00;;;;;;6285940;22;20024;-78
2021/06/29 09:33:02;;;;;;;2.22;1.50;;;26.50;60.50;;;;;;6284312;22;20027;-78
2021/06/29 09:35:32;;;;;;;4.85;2.00;;;26.90;61.10;;;;;;6282671;22;20075;-77
2021/06/29 09:38:00;;;;;;;2.17;1.58;;;27.50;59.20;;;;;;6255651;22;20027;-77
2021/06/29 09:40:31;;;;;;;2.40;1.55;;;27.70;58.60;;;;;;6284665;22;20067;-77
2021/06/29 09:43:14;;;;;;;2.30;1.52;;;27.70;58.20;;;;;;6255533;22;20039;-78
2021/06/29 09:45:44;;;;;;;1.92;1.40;;;27.60;58.40;;;;;;6280810;22;20035;-78
2021/06/29 09:48:14;;;;;;;3.08;1.70;;;27.70;58.50;;;;;;6284782;22;20058;-78
2021/06/29 09:50:47;;;;;;;4.55;1.90;;;27.80;57.50;;;;;;6285048;22;20346;-78
2021/06/29 09:53:16;;;;;;;2.85;1.65;;;28.00;57.30;;;;;;6259294;22;20341;-79
2021/06/29 09:55:45;;;;;;;;;;;28.20;56.80;;;;;;6282054;22;20023;-76
2021/06/29 09:58:13;;;;;;;4.50;1.85;;;28.50;56.10;;;;;;6254965;22;19957;-77
2021/06/29 10:00:45;;;;;;;5.55;1.75;;;28.60;55.80;;;;;;6248990;22;20063;-78
2021/06/29 10:03:21;;;;;;;3.40;1.58;;;28.50;56.10;;;;;;6280450;22;20105;-78
2021/06/29 10:05:51;;;;;;;2.85;1.83;;;28.10;55.90;;;;;;6280525;22;20028;-77
2021/06/29 10:08:27;;;;;;;2.72;1.55;;;27.70;57.00;;;;;;6257067;22;20020;-76
2021/06/29 10:11:24;;;;;;;3.17;1.80;;;27.50;57.90;;;;;;6280440;22;20078;-77
2021/06/29 10:13:58;;;;;;;4.20;2.08;;;26.40;60.20;;;;;;6282972;22;20062;-77
2021/06/29 10:16:28;;;;;;;6.30;2.28;;;26.90;58.90;;;;;;6255432;22;20034;-77
2021/06/29 10:19:15;;;;;;;3.03;1.73;;;27.00;59.00;;;;;;6280599;22;20077;-78
2021/06/29 10:21:47;;;;;;;4.07;1.58;;;27.60;57.60;;;;;;6255658;22;20245;-77
2021/06/29 10:24:16;;;;;;;5.90;1.98;;;28.10;56.10;;;;;;6283497;22;20188;-77
2021/06/29 10:26:45;;;;;;;6.20;2.08;;;28.50;54.70;;;;;;6254125;22;20353;-78
2021/06/29 10:29:15;;;;;;;2.78;1.67;;;28.60;54.50;;;;;;6284028;22;20016;-78
2021/06/29 10:31:48;;;;;;;3.13;1.73;;;28.70;54.80;;;;;;6256474;22;20035;-77
2021/06/29 10:34:16;;;;;;;2.83;1.80;;;29.80;51.50;;;;;;6283254;22;20048;-77
2021/06/29 10:36:47;;;;;;;3.72;1.50;;;29.90;51.40;;;;;;6280939;22;20023;-77
2021/06/29 10:39:17;;;;;;;2.40;1.65;;;30.10;51.10;;;;;;6283196;22;20050;-77
2021/06/29 10:41:49;;;;;;;4.88;1.67;;;31.00;47.40;;;;;;6255271;22;20028;-77
2021/06/29 10:44:18;;;;;;;2.65;1.67;;;30.00;50.70;;;;;;6281989;22;20023;-77
2021/06/29 10:46:47;;;;;;;3.55;2.70;;;31.70;45.10;;;;;;6255326;22;20034;-77
2021/06/29 10:49:47;;;;;;;4.00;2.17;;;32.40;44.10;;;;;;6255321;22;20236;-76
2021/06/29 10:52:38;;;;;;;2.70;1.40;;;33.80;42.00;;;;;;6281693;22;20115;-77
2021/06/29 10:55:07;;;;;;;4.10;1.58;;;34.00;40.10;;;;;;6277940;22;20046;-78
2021/06/29 10:57:44;;;;;;;3.65;1.70;;;34.60;39.20;;;;;;6281202;22;20216;-78
2021/06/29 11:00:26;;;;;;;2.45;1.60;;;33.40;41.10;;;;;;6249281;22;20023;-78
2021/06/29 11:03:05;;;;;;;2.63;1.70;;;33.70;40.10;;;;;;6281237;22;20022;-77
2021/06/29 11:05:37;;;;;;;3.35;1.90;;;33.80;40.20;;;;;;6248774;22;20028;-76
2021/06/29 11:08:15;;;;;;;1.88;1.48;;;34.40;38.90;;;;;;6277745;22;20279;-78
2021/06/29 11:10:47;;;;;;;3.20;1.65;;;34.50;37.90;;;;;;6273960;22;20095;-78
2021/06/29 11:13:16;;;;;;;2.20;1.38;;;35.10;36.40;;;;;;6250566;22;20028;-77
2021/06/29 11:15:51;;;;;;;2.17;1.48;;;33.70;38.00;;;;;;6249048;22;20015;-78
2021/06/29 11:18:20;;;;;;;3.58;1.60;;;34.60;37.40;;;;;;6283608;22;20075;-78
2021/06/29 11:21:06;;;;;;;2.63;1.38;;;35.50;35.80;;;;;;6278804;22;20015;-76
2021/06/29 11:23:47;;;;;;;3.92;1.50;;;37.30;32.60;;;;;;6283310;22;20020;-77
2021/06/29 11:26:20;;;;;;;3.03;1.40;;;37.00;32.60;;;;;;6282555;22;20070;-77
2021/06/29 11:28:50;;;;;;;1.60;1.30;;;38.50;31.60;;;;;;6284346;22;20254;-78
2021/06/29 11:31:31;;;;;;;3.45;1.50;;;38.80;30.40;;;;;;6256815;22;20019;-79
2021/06/29 11:34:07;;;;;;;1.80;1.20;;;38.30;29.70;;;;;;6257843;22;20026;-79
2021/06/29 11:36:43;;;;;;;2.10;1.27;;;38.60;30.90;;;;;;6225900;22;20075;-78
2021/06/29 11:39:35;;;;;;;1.55;1.10;;;39.10;29.20;;;;;;6254897;22;20261;-78
2021/06/29 11:42:30;;;;;;;2.58;1.30;;;39.20;28.10;;;;;;6253670;22;20019;-78
2021/06/29 11:45:08;;;;;;;3.38;1.02;;;39.70;28.90;;;;;;6253804;22;20023;-78
2021/06/29 11:47:40;;;;;;;2.50;1.33;;;38.80;28.90;;;;;;6258275;22;20034;-78
2021/06/29 11:50:19;;;;;;;1.55;1.30;;;39.10;29.80;;;;;;6281656;22;20347;-77
2021/06/29 11:52:48;;;;;;;1.60;1.20;;;36.90;30.90;;;;;;6278754;22;20236;-77
2021/06/29 11:55:19;;;;;;;1.70;1.40;;;36.00;33.00;;;;;;6254959;22;20030;-77
2021/06/29 11:57:49;;;;;;;2.35;1.40;;;37.90;30.00;;;;;;6276471;22;20027;-78
2021/06/29 12:00:23;;;;;;;3.17;1.38;;;36.10;32.10;;;;;;6277576;22;20079;-77
2021/06/29 12:02:53;;;;;;;2.47;1.33;;;38.00;30.70;;;;;;6281337;22;20055;-77
2021/06/29 12:05:21;;;;;;;2.00;1.30;;;39.20;28.90;;;;;;6280301;22;20019;-77
2021/06/29 12:07:50;;;;;;;1.33;0.98;;;39.00;27.70;;;;;;6276865;22;20057;-78
2021/06/29 12:10:21;;;;;;;2.03;1.38;;;37.80;29.50;;;;;;6254414;22;20027;-79
2021/06/29 12:12:50;;;;;;;1.63;1.10;;;38.40;29.10;;;;;;6282031;22;20082;-78
2021/06/29 12:15:21;;;;;;;2.05;1.30;;;38.50;28.40;;;;;;6257484;22;20299;-78
2021/06/29 12:17:55;;;;;;;2.42;1.25;;;38.90;28.30;;;;;;6281568;22;20188;-78
2021/06/29 12:20:24;;;;;;;2.55;1.20;;;39.80;27.70;;;;;;6255277;22;20206;-78
2021/06/29 12:22:56;;;;;;;1.65;1.15;;;39.70;26.40;;;;;;6257108;22;20158;-78
2021/06/29 12:25:28;;;;;;;2.80;1.33;;;40.60;26.50;;;;;;6281314;22;20027;-77
2021/06/29 12:28:00;;;;;;;2.05;1.13;;;42.50;24.00;;;;;;6256378;22;20035;-78
2021/06/29 12:30:42;;;;;;;1.92;1.20;;;43.30;23.50;;;;;;6284343;22;20093;-78
2021/06/29 12:33:21;;;;;;;2.08;1.20;;;42.50;23.70;;;;;;6285175;22;20038;-78
2021/06/29 12:35:50;;;;;;;3.95;1.30;;;42.80;23.70;;;;;;6254921;22;20016;-78
2021/06/29 12:38:20;;;;;;;2.60;1.40;;;42.50;23.90;;;;;;6279421;22;20255;-78
2021/06/29 12:40:52;;;;;;;2.03;1.00;;;43.90;22.40;;;;;;6253911;22;20085;-78
2021/06/29 12:43:38;;;;;;;4.60;2.08;;;44.40;21.80;;;;;;6281333;22;20083;-78
2021/06/29 12:46:23;;;;;;;2.88;1.45;;;42.90;22.70;;;;;;6280206;22;20170;-76
2021/06/29 12:49:02;;;;;;;1.70;1.10;;;37.40;28.30;;;;;;6282812;22;20016;-77
2021/06/29 12:51:31;;;;;;;1.92;1.20;;;34.70;32.10;;;;;;6283548;22;20015;-78
2021/06/29 12:54:01;;;;;;;3.78;1.20;;;34.40;32.80;;;;;;6256606;22;20054;-78
2021/06/29 12:56:34;;;;;;;1.52;1.17;;;34.60;32.50;;;;;;6252835;22;20031;-77
2021/06/29 12:59:01;;;;;;;2.53;1.30;;;34.50;32.70;;;;;;6254393;22;20028;-78
2021/06/29 13:01:32;;;;;;;2.47;1.20;;;33.60;34.70;;;;;;6251939;22;20034;-77
2021/06/29 13:04:06;;;;;;;2.42;1.52;;;37.00;30.40;;;;;;6282071;22;20023;-78